• Join FlightAware (Why Join?)
  • Login
  • US Flag 
01:00PM EDT


 

Airport Tracker/Info


-or-


 

Live Flight TrackerFlight Track Log ✈ EJA361 ✈ 05-Aug-2013 ✈ KMRY - KIAD

Flight Track Log - Related Links

Times and Time Zones

All times are in EDT time to prevent confusion due to time zone crossing. See the EJA361 flight status page for this flight to view local times or setup timezone preferences in your user account.

Time Position Orientation Groundspeed Altitude Reporting Facility
EDT Latitude Longitude Course Direction KTS MPH feet Rate Location/Type
01:05PM 36.6000 -121.7333 76° East 247 284 4,800  Level Northern Cal TRACON
01:06PM 36.6167 -121.6500 76° East 288 331 8,100 2,100 Climbing Northern Cal TRACON
01:07PM 36.6333 -121.5333 80° East 307 353 9,000 540 Climbing Northern Cal TRACON
01:08PM 36.6333 -121.4333 90° East 297 342 9,200 1,500 Climbing Northern Cal TRACON
01:09PM 36.6500 -121.3333 78° East 323 372 12,000 2,760 Climbing Northern Cal TRACON
01:10PM 36.6653 -121.2019 82° East 319 367 15,300 2,760 Climbing Oakland Center
01:11PM 36.6794 -121.0853 81° East 333 383 18,200 1,800 Climbing Oakland Center
01:12PM 36.6939 -120.9631 82° East 347 399 19,100 1,500 Climbing Oakland Center
01:13PM 36.7100 -120.8236 82° East 386 444 21,300 2,220 Climbing Oakland Center
01:14PM 36.7683 -120.7050 58° Northeast 404 465 23,700 2,400 Climbing Oakland Center
01:15PM 36.8483 -120.5903 49° Northeast 399 459 26,300 2,220 Climbing Oakland Center
01:16PM 36.9242 -120.4825 49° Northeast 409 471 28,300 1,740 Climbing Oakland Center
01:17PM 37.0000 -120.3736 49° Northeast 413 475 30,000 1,560 Climbing Oakland Center
01:18PM 37.0783 -120.2589 49° Northeast 429 494 31,500 1,380 Climbing Oakland Center
01:19PM 37.1567 -120.1461 49° Northeast 431 496 32,900 1,260 Climbing Oakland Center
01:20PM 37.2367 -120.0289 49° Northeast 439 505 34,100 1,140 Climbing Oakland Center
01:21PM 37.3344 -119.8858 49° Northeast 449 517 35,300 1,200 Climbing Oakland Center
01:22PM 37.4175 -119.7664 49° Northeast 453 521 36,600 1,140 Climbing Oakland Center
01:23PM 37.4986 -119.6456 50° Northeast 452 520 37,700 1,200 Climbing Oakland Center
01:24PM 37.5789 -119.5264 50° Northeast 449 517 39,100 1,140 Climbing Oakland Center
01:25PM 37.6572 -119.4114 49° Northeast 437 503 40,100 780 Climbing Oakland Center
01:26PM 37.7347 -119.2958 50° Northeast 431 496 40,800 420 Climbing Oakland Center
01:27PM 37.8119 -119.1806 50° Northeast 432 497 41,000 60 Climbing Oakland Center
01:28PM 37.9022 -119.0439 50° Northeast 444 511 41,000  Level Oakland Center
01:29PM 37.9564 -118.8989 65° Northeast 455 524 41,000  Level Oakland Center
01:30PM 37.9981 -118.7464 71° East 457 526 41,000  Level Oakland Center
01:31PM 38.0406 -118.5925 71° East 461 531 41,000  Level Oakland Center
01:32PM 38.0833 -118.4375 71° East 464 534 41,000  Level Oakland Center
01:33PM 38.1242 -118.2825 71° East 464 534 41,000  Level Oakland Center
01:34PM 38.1728 -118.1039 71° East 460 529 41,000  Level Oakland Center
01:36PM 38.2158 -117.9456 71° East 456 525 41,000  Level Oakland Center
01:37PM 38.2561 -117.7944 71° East 452 520 41,000  Level Oakland Center
01:38PM 38.2969 -117.6408 71° East 454 522 41,000  Level Oakland Center
01:38PM 38.3292 -117.5178 72° East 455 524 41,000  Level Salt Lake Center
01:40PM 38.3778 -117.3306 72° East 456 525 41,000  Level Oakland Center
01:41PM 38.4089 -117.2056 72° East 456 525 41,000  Level Salt Lake Center
01:42PM 38.4467 -117.0494 73° East 455 524 41,000  Level Salt Lake Center
01:43PM 38.4911 -116.8622 73° East 456 525 41,000  Level Salt Lake Center
01:44PM 38.5294 -116.7061 73° East 458 527 41,000  Level Salt Lake Center
01:45PM 38.5658 -116.5489 73° East 460 529 41,000  Level Salt Lake Center
01:46PM 38.6033 -116.3925 73° East 461 531 41,000  Level Salt Lake Center
01:47PM 38.6408 -116.2353 73° East 460 529 41,000  Level Salt Lake Center
01:48PM 38.6772 -116.0789 73° East 461 531 41,000  Level Salt Lake Center
01:49PM 38.7144 -115.9211 73° East 462 532 41,000  Level Salt Lake Center
01:50PM 38.7578 -115.7325 74° East 460 529 41,000  Level Salt Lake Center
01:51PM 38.7947 -115.5736 73° East 465 535 41,000  Level Salt Lake Center
01:52PM 38.8306 -115.4147 74° East 465 535 41,000  Level Salt Lake Center
01:53PM 38.8644 -115.2617 74° East 463 533 41,000  Level Salt Lake Center
01:54PM 38.9028 -115.0994 73° East 469 540 41,000  Level Salt Lake Center
01:55PM 38.9386 -114.9394 74° East 469 540 41,000  Level Salt Lake Center
01:56PM 38.9808 -114.7461 74° East 468 539 41,000  Level Salt Lake Center
01:57PM 39.0172 -114.5847 74° East 471 542 41,000  Level Salt Lake Center
01:58PM 39.0528 -114.4214 74° East 473 544 41,000  Level Salt Lake Center
01:59PM 39.0878 -114.2569 75° East 476 548 41,000  Level Salt Lake Center
02:00PM 39.1225 -114.0939 75° East 474 545 41,000  Level Salt Lake Center
02:01PM 39.1594 -113.9286 74° East 479 551 41,000  Level Salt Lake Center
02:02PM 39.2000 -113.7308 75° East 476 548 41,000  Level Salt Lake Center
02:03PM 39.2356 -113.5658 74° East 477 549 41,000  Level Salt Lake Center
02:04PM 39.2689 -113.4014 75° East 476 548 41,000  Level Salt Lake Center
02:05PM 39.3033 -113.2375 75° East 474 545 41,000  Level Salt Lake Center
02:06PM 39.3400 -113.0725 74° East 476 548 41,000  Level Salt Lake Center
02:07PM 39.3775 -112.9058 74° East 480 552 41,000  Level Salt Lake Center
02:08PM 39.4206 -112.7081 74° East 477 549 41,000  Level Salt Lake Center
02:10PM 39.4559 -112.5397 75° East  Level FlightAware Approximate
02:11PM 39.4961 -112.3678 75° East 482 555 41,000  Level Salt Lake Center
02:12PM 39.5308 -112.2006 75° East 484 557 41,000  Level Salt Lake Center
02:13PM 39.5661 -112.0344 75° East 481 554 41,000  Level Salt Lake Center
02:14PM 39.6014 -111.8664 75° East 485 558 41,000  Level Salt Lake Center
02:15PM 39.6361 -111.6981 75° East 486 559 41,000  Level Salt Lake Center
02:16PM 39.6783 -111.4967 75° East 486 559 41,000  Level Salt Lake Center
02:17PM 39.7133 -111.3269 75° East 488 562 41,000  Level Salt Lake Center
02:18PM 39.7511 -111.1500 74° East 481 554 41,000  Level Salt Lake Center
02:19PM 39.7833 -110.9883 75° East 480 552 41,000  Level Salt Lake Center
02:20PM 39.8156 -110.8269 75° East 482 555 41,000  Level Salt Lake Center
02:21PM 39.8539 -110.6392 75° East 480 552 41,000  Level Salt Lake Center
02:22PM 39.8867 -110.4767 75° East 483 556 41,000  Level Salt Lake Center
02:23PM 39.9231 -110.2883 76° East 482 555 41,000  Level Salt Lake Center
02:24PM 39.9533 -110.1275 76° East 479 551 41,000  Level Salt Lake Center
02:25PM 39.9908 -109.9369 76° East 483 556 41,000  Level Salt Lake Center
02:26PM 40.0217 -109.7731 76° East 485 558 41,000  Level Salt Lake Center
02:27PM 40.0583 -109.5806 76° East 489 563 41,000  Level Salt Lake Center
02:28PM 40.0892 -109.4156 76° East 489 563 41,000  Level Salt Lake Center
02:29PM 40.1256 -109.2214 76° East 491 565 41,000  Level Salt Lake Center
02:30PM 40.1564 -109.0561 76° East 488 562 41,000  Level Salt Lake Center
02:31PM 40.1864 -108.8900 77° East 488 562 41,000  Level Salt Lake Center
02:32PM 40.2217 -108.6947 77° East 492 566 41,000  Level Salt Lake Center
02:33PM 40.2514 -108.5278 77° East 491 565 41,000  Level Salt Lake Center
02:34PM 40.2867 -108.3331 77° East 491 565 41,000  Level Salt Lake Center
02:35PM 40.3175 -108.1511 77° East 494 568 41,000  Level Salt Lake Center
02:36PM 40.3475 -107.9833 77° East 495 570 41,000  Level Salt Lake Center
02:37PM 40.3814 -107.7847 77° East 501 577 41,000  Level Salt Lake Center
02:39PM 40.4178 -107.5703 77° East 495 570 41,000  Level Denver Center
02:40PM 40.4467 -107.3997 77° East 498 573 41,000  Level Denver Center
02:41PM 40.4789 -107.2022 78° East 497 572 41,000  Level Denver Center
02:42PM 40.5044 -107.0364 78° East 496 571 41,000  Level Denver Center
02:43PM 40.5292 -106.8572 80° East 496 571 41,000  Level Denver Center
02:44PM 40.5539 -106.6775 80° East 497 572 41,000  Level Denver Center
02:45PM 40.5825 -106.4636 80° East 494 568 41,000  Level Denver Center
02:46PM 40.6061 -106.2922 80° East 496 571 41,000  Level Denver Center
02:47PM 40.6292 -106.1192 80° East 496 571 41,000  Level Denver Center
02:48PM 40.6522 -105.9383 80° East 500 575 41,000  Level Denver Center
02:49PM 40.6789 -105.7231 81° East 496 571 41,000  Level Denver Center
02:50PM 40.7025 -105.5406 80° East 503 579 41,000  Level Denver Center
02:51PM 40.7253 -105.3606 80° East 498 573 41,000  Level Denver Center
02:52PM 40.7467 -105.1800 81° East 500 575 41,000  Level Denver Center
02:54PM 40.7903 -104.8169 81° East 500 575 41,000  Level Denver Center
02:55PM 40.8122 -104.6403 81° East 489 563 41,000  Level Denver Center
02:56PM 40.8375 -104.4236 81° East 496 571 41,000  Level Denver Center
02:57PM 40.8583 -104.2425 81° East 498 573 41,000  Level Denver Center
02:58PM 40.8783 -104.0622 82° East 497 572 41,000  Level Denver Center
02:59PM 40.8981 -103.8825 82° East 496 571 41,000  Level Denver Center
03:00PM 40.9181 -103.7033 82° East 494 568 41,000  Level Denver Center
03:01PM 40.9375 -103.5228 82° East 496 571 41,000  Level Denver Center
03:02PM 40.9597 -103.3064 82° East 495 570 41,000  Level Denver Center
03:03PM 40.9794 -103.1267 82° East 493 567 41,000  Level Denver Center
03:05PM 40.9975 -102.9436 82° East 493 567 41,000  Level Denver Center
03:06PM 41.0153 -102.7714 82° East 494 568 41,000  Level Denver Center
03:07PM 41.0356 -102.5700 82° East 493 567 41,000  Level Denver Center
03:08PM 41.0525 -102.3967 83° East 496 571 41,000  Level Denver Center
03:09PM 41.0719 -102.1939 83° East 495 570 41,000  Level Denver Center
03:10PM 41.0889 -102.0206 83° East 495 570 41,000  Level Denver Center
03:11PM 41.1078 -101.8178 83° East 497 572 41,000  Level Denver Center
03:12PM 41.1267 -101.6142 83° East 499 574 41,000  Level Denver Center
03:13PM 41.1453 -101.4117 83° East 496 571 41,000  Level Denver Center
03:14PM 41.1608 -101.2364 83° East 497 572 41,000  Level Denver Center
03:15PM 41.1786 -101.0311 83° East 499 574 41,000  Level Denver Center
03:16PM 41.1944 -100.8553 83° East 498 573 41,000  Level Denver Center
03:17PM 41.2119 -100.6489 84° East 500 575 41,000  Level Denver Center
03:18PM 41.2267 -100.4731 84° East 497 572 41,000  Level Denver Center
03:19PM 41.2403 -100.2969 84° East 498 573 41,000  Level Denver Center
03:20PM 41.2564 -100.0922 84° East 498 573 41,000  Level Denver Center
03:21PM 41.2706 -99.9158 84° East 501 577 41,000  Level Denver Center
03:22PM 41.2856 -99.7092 84° East 502 578 41,000  Level Denver Center
03:23PM 41.2983 -99.5328 84° East 501 577 41,000  Level Denver Center
03:24PM 41.3122 -99.3369 85° East 500 575 41,000  Level Denver Center
03:25PM 41.3247 -99.1522 85° East 498 573 41,000  Level Denver Center
03:26PM 41.3383 -98.9653 84° East 500 575 41,000  Level Denver Center
03:27PM 41.3442 -98.8367 87° East 502 578 41,000  Level Minneapolis Center
03:28PM 41.3564 -98.6517 85° East 502 578 41,000  Level Minneapolis Center
03:29PM 41.3714 -98.4369 85° East 504 580 41,000  Level Minneapolis Center
03:30PM 41.3814 -98.2503 86° East 505 581 41,000  Level Minneapolis Center
03:31PM 41.3861 -98.0567 88° East 503 579 41,000  Level Minneapolis Center
03:32PM 41.3917 -97.8719 88° East 501 577 41,000  Level Minneapolis Center
03:33PM 41.3972 -97.6861 88° East 503 579 41,000  Level Minneapolis Center
03:34PM 41.4019 -97.4994 88° East 504 580 41,000  Level Minneapolis Center
03:35PM 41.4067 -97.3144 88° East 502 578 41,000  Level Minneapolis Center
03:36PM 41.4106 -97.1272 88° East 505 581 41,000  Level Minneapolis Center
03:37PM 41.4150 -96.9403 88° East 506 582 41,000  Level Minneapolis Center
03:38PM 41.4189 -96.7522 88° East 508 585 41,000  Level Minneapolis Center
03:39PM 41.4233 -96.5267 88° East 508 585 41,000  Level Minneapolis Center
03:42PM 41.4286 -96.1522 89° East 514 592 41,000  Level Minneapolis Center
03:43PM 41.4308 -95.9631 89° East 513 590 41,000  Level Minneapolis Center
03:44PM 41.4344 -95.7728 88° East 514 592 41,000  Level Minneapolis Center
03:45PM 41.4350 -95.5597 90° East 516 594 41,000  Level Minneapolis Center
03:46PM 41.4361 -95.3700 89° East 512 589 41,000  Level Minneapolis Center
03:47PM 41.4386 -95.1039 89° East 514 592 41,000  Level Minneapolis Center
03:48PM 41.4397 -94.9144 89° East 512 589 41,000  Level Minneapolis Center
03:49PM 41.4394 -94.7247 90° East 512 589 41,000  Level Minneapolis Center
03:50PM 41.4403 -94.5361 90° East 510 587 41,000  Level Minneapolis Center
03:51PM 41.4408 -94.3458 90° East 512 589 41,000  Level Minneapolis Center
03:52PM 41.4386 -94.1564 91° East 512 589 41,000  Level Minneapolis Center
03:53PM 41.4367 -93.9667 91° East 513 590 41,000  Level Minneapolis Center
03:54PM 41.4364 -93.7381 90° East 515 593 41,000  Level Minneapolis Center
03:55PM 41.4406 -93.5492 88° East 515 593 41,000  Level Minneapolis Center
03:56PM 41.4517 -93.3589 85° East 517 595 41,000  Level Minneapolis Center
03:57PM 41.4606 -93.1683 86° East 518 596 41,000  Level Minneapolis Center
03:58PM 41.4681 -92.9800 87° East 515 593 41,000  Level Minneapolis Center
03:59PM 41.4783 -92.7544 86° East 512 589 41,000  Level Minneapolis Center
04:00PM 41.4783 -92.5992 90° East 514 592 41,000  Level Chicago Center
04:01PM 41.4631 -92.4089 96° East 517 595 41,000  Level Chicago Center
04:02PM 41.4458 -92.2133 97° East 523 602 41,000  Level Chicago Center
04:03PM 41.4261 -91.9886 97° East 520 598 41,000  Level Chicago Center
04:04PM 41.4083 -91.7994 97° East 521 600 41,000  Level Chicago Center
04:05PM 41.3900 -91.6100 97° East 522 601 41,000  Level Chicago Center
04:06PM 41.3719 -91.4228 97° East 519 597 41,000  Level Chicago Center
04:08PM 41.3519 -91.2206 97° East 522 601 41,000  Level Chicago Center
04:09PM 41.3325 -91.0300 98° East 519 597 41,000  Level Chicago Center
04:10PM 41.3089 -90.8006 98° East 522 601 41,000  Level Chicago Center
04:11PM 41.2892 -90.6094 98° East 521 600 41,000  Level Chicago Center
04:12PM 41.2686 -90.4194 98° East 518 596 41,000  Level Chicago Center
04:13PM 41.2486 -90.2256 98° East 526 605 41,000  Level Chicago Center
04:14PM 41.2269 -90.0356 99° East 521 600 41,000  Level Chicago Center
04:15PM 41.2078 -89.8436 97° East 522 601 41,000  Level Chicago Center
04:16PM 41.1856 -89.6492 99° East 527 606 41,000  Level Chicago Center
04:17PM 41.1628 -89.4564 99° East 526 605 41,000  Level Chicago Center
04:18PM 41.1369 -89.2306 99° East 514 592 41,000  Level Chicago Center
04:19PM 41.1144 -89.0469 99° East 521 600 41,000  Level Chicago Center
04:20PM 41.0906 -88.8567 99° East 525 604 41,000  Level Chicago Center
04:21PM 41.0672 -88.6686 99° East 525 604 41,000  Level Chicago Center
04:22PM 41.0400 -88.4431 99° East 524 603 41,000  Level Chicago Center
04:23PM 41.0161 -88.2572 100° East 521 600 41,000  Level Chicago Center
04:24PM 40.9933 -88.0731 99° East 517 595 41,000  Level Chicago Center
04:25PM 40.9697 -87.8894 100° East 515 593 41,000  Level Chicago Center
04:26PM 40.9419 -87.6708 99° East 509 586 41,000  Level Chicago Center
04:27PM 40.9181 -87.4864 100° East 514 592 41,000  Level Chicago Center
04:28PM 40.8917 -87.3017 101° East 515 593 41,000  Level Chicago Center
04:29PM 40.8664 -87.1161 100° East 517 595 41,000  Level Chicago Center
04:30PM 40.8406 -86.9289 100° East 520 598 41,000  Level Chicago Center
04:31PM 40.8144 -86.7386 100° East 519 597 41,000  Level Chicago Center
04:32PM 40.7828 -86.5131 100° East 521 600 41,000  Level Chicago Center
04:33PM 40.7553 -86.3269 101° East 521 600 41,000  Level Chicago Center
04:34PM 40.7286 -86.1406 101° East 521 600 41,000  Level Chicago Center
04:35PM 40.7008 -85.9544 101° East 521 600 41,000  Level Chicago Center
04:36PM 40.6714 -85.7528 101° East 520 598 41,000  Level Chicago Center
04:38PM 40.6428 -85.5642 101° East 523 602 41,000  Level Chicago Center
04:39PM 40.6147 -85.3756 101° East 525 604 41,000  Level Chicago Center
04:40PM 40.5858 -85.1869 101° East 526 605 41,000  Level Chicago Center
04:40PM 40.5594 -85.0336 103° East 527 606 41,000  Level Indianapolis Center
04:41PM 40.5244 -84.8089 102° East 524 603 41,000  Level Indianapolis Center
04:42PM 40.4936 -84.6214 102° East 526 605 41,000  Level Indianapolis Center
04:43PM 40.4667 -84.4367 101° East 517 595 41,000  Level Indianapolis Center
04:44PM 40.4367 -84.2503 102° East 521 600 41,000  Level Indianapolis Center
04:46PM 40.4056 -84.0636 102° East 524 603 41,000  Level Indianapolis Center
04:47PM 40.3747 -83.8789 102° East 521 600 41,000  Level Indianapolis Center
04:48PM 40.3394 -83.6756 103° East 526 605 41,000  Level Indianapolis Center
04:49PM 40.3097 -83.4897 102° East 521 600 41,000  Level Indianapolis Center
04:50PM 40.2767 -83.3031 103° East 522 601 41,000  Level Indianapolis Center
04:51PM 40.2397 -83.0850 102° East 521 600 41,000  Level Indianapolis Center
04:52PM 40.2061 -82.8981 103° East 523 602 41,000  Level Indianapolis Center
04:53PM 40.1736 -82.7119 103° East 523 602 41,000  Level Indianapolis Center
04:54PM 40.1392 -82.5267 104° East 523 602 41,000  Level Indianapolis Center
04:55PM 40.0997 -82.3403 105° East 530 610 41,000  Level Indianapolis Center
04:56PM 40.0614 -82.1542 105° East 529 609 41,000  Level Indianapolis Center
04:57PM 40.0153 -81.9358 105° East 532 612 41,000  Level Indianapolis Center
04:58PM 39.9761 -81.7511 105° East 529 609 41,000  Level Indianapolis Center
04:59PM 39.9364 -81.5667 106° East 529 609 41,000 -180 Level Indianapolis Center
05:00PM 39.8964 -81.3800 106° East 531 611 40,700 -660 Descending Indianapolis Center
05:01PM 39.8572 -81.1983 106° East 524 603 39,700 -1,080 Descending Indianapolis Center
05:02PM 39.8169 -81.0158 106° East 523 602 38,500 -1,200 Descending Indianapolis Center
05:03PM 39.7753 -80.8294 106° East 532 612 37,300 -1,200 Descending Indianapolis Center
05:04PM 39.7339 -80.6453 106° East 531 611 36,100 -1,140 Descending Indianapolis Center
05:05PM 39.6836 -80.4197 106° East 539 620 35,000 -540 Descending Indianapolis Center
05:06PM 39.6414 -80.2289 106° East 547 629 35,000  Level Indianapolis Center
05:07PM 39.6181 -80.1203 106° East 539 620 35,000 -1,500 Level Washington Center
05:08PM 39.5750 -79.9317 106° East 572 658 32,700 -2,520 Descending Washington Center
05:09PM 39.5378 -79.7492 105° East 550 633 30,000 -2,700 Descending Washington Center
05:10PM 39.5064 -79.5697 103° East 525 604 27,300 -1,560 Descending Washington Center
05:11PM 39.4767 -79.3933 102° East 509 586 27,000 -900 Descending Washington Center
05:12PM 39.4403 -79.2167 105° East 509 586 25,500 -1,860 Descending Washington Center
05:13PM 39.4117 -79.0569 103° East 483 556 23,300 -2,220 Descending Washington Center
05:14PM 39.3850 -78.8997 102° East 467 537 21,100 -2,280 Descending Washington Center
05:15PM 39.3575 -78.7561 104° East 434 499 18,900 -2,220 Descending Washington Center
05:16PM 39.3319 -78.6156 103° East 415 478 16,700 -2,040 Descending Washington Center
05:17PM 39.3081 -78.4831 103° East 401 461 14,900 -1,800 Descending Washington Center
05:18PM 39.2778 -78.3558 107° East 373 429 13,100 -1,800 Descending Washington Center
05:19PM 39.2278 -78.2575 123° Southeast 346 398 11,300 -1,680 Descending Washington Center
05:20PM 39.1778 -78.1647 125° Southeast 329 379 9,800 -1,560 Descending Washington Center
05:21PM 39.1317 -78.0747 123° Southeast 310 357 8,300 -1,380 Descending Washington Center
05:22PM 39.0894 -77.9983 125° Southeast 305 351 7,100 -1,200 Descending Washington Center
05:23PM 39.0492 -77.9222 124° Southeast 292 336 6,000 -600 Descending Washington Center
05:24PM 39.0031 -77.8300 123° Southeast 285 328 6,000  Level Washington Center
05:25PM 38.9631 -77.7300 117° Southeast 285 328 6,000  Level Washington Center
05:26PM 38.9522 -77.6469 99° East 265 305 6,000  Level Washington Center
05:26PM 38.9167 -77.6167 146° Southeast 209 241 6,000 -180 Level Potomac TRACON
05:27PM 38.8667 -77.5833 153° Southeast 193 222 5,800 -900 Descending Potomac TRACON
05:28PM 38.8167 -77.5667 165° South 201 231 4,200 -1,500 Descending Potomac TRACON
05:29PM 38.8167 -77.5000 90° East 197 227 2,800 -1,200 Descending Potomac TRACON
05:30PM 38.8500 -77.4500 49° Northeast 182 209 1,800 -900 Descending Potomac TRACON
05:31PM 38.8833 -77.4333 21° North 133 153 1,100 -720 Descending Potomac TRACON
05:33PM 38.9333 -77.4500 345° North  Level FlightAware Approximate
05:40PM 38.9474 -77.4599 345° North  Level Estimated
05:41PM 38.9474 -77.4599 345° North  Level Estimated
05:42PM 38.9474 -77.4599 345° North  Level Estimated